createdAt,value
2019-03-21T00:03:59.814Z,15.58
2019-03-21T00:09:08.962Z,14.72
2019-03-21T00:14:18.016Z,15.02
2019-03-21T00:19:27.139Z,13.46
2019-03-21T00:24:36.213Z,10.02
2019-03-21T00:29:45.353Z,13.95
2019-03-21T00:34:54.402Z,17.43
2019-03-21T00:40:03.495Z,20.31
2019-03-21T00:45:12.570Z,15.96
2019-03-21T00:50:21.688Z,15.90
2019-03-21T00:55:30.742Z,15.29
2019-03-21T01:00:39.862Z,13.41
2019-03-21T01:05:48.922Z,15.29
2019-03-21T01:10:58.113Z,13.94
2019-03-21T01:16:07.222Z,19.26
2019-03-21T01:21:16.341Z,16.27
2019-03-21T01:26:25.406Z,12.38
2019-03-21T01:31:34.610Z,17.61
2019-03-21T01:36:44.050Z,14.52
2019-03-21T01:41:53.181Z,12.24
2019-03-21T01:47:02.237Z,12.52
2019-03-21T01:52:11.479Z,15.10
2019-03-21T01:57:20.521Z,12.45
2019-03-21T02:02:30.646Z,14.14
2019-03-21T02:07:29.658Z,13.95
2019-03-21T02:12:38.796Z,12.74
2019-03-21T02:17:47.840Z,13.97
2019-03-21T02:22:57.096Z,13.28
2019-03-21T02:28:06.150Z,12.72
2019-03-21T02:33:15.288Z,12.61
2019-03-21T02:38:24.316Z,16.20
2019-03-21T02:43:33.539Z,14.88
2019-03-21T02:48:42.507Z,15.66
2019-03-21T02:53:51.865Z,13.26
2019-03-21T02:59:00.900Z,15.55
2019-03-21T03:04:10.130Z,10.81
2019-03-21T03:09:19.214Z,15.46
2019-03-21T03:14:28.346Z,17.24
2019-03-21T03:19:37.391Z,16.12
2019-03-21T03:24:46.535Z,18.09
2019-03-21T03:29:55.618Z,9.23
2019-03-21T03:35:04.758Z,9.33
2019-03-21T03:40:16.164Z,8.03
2019-03-21T03:45:15.633Z,9.30
2019-03-21T03:50:24.682Z,7.46
2019-03-21T03:55:33.934Z,8.40
2019-03-21T04:00:42.935Z,8.00
2019-03-21T04:05:52.080Z,7.57
2019-03-21T04:11:01.190Z,9.77
2019-03-21T04:16:10.323Z,12.79
2019-03-21T04:21:19.357Z,12.00
2019-03-21T04:26:28.501Z,15.68
2019-03-21T04:31:37.570Z,16.46
2019-03-21T04:36:46.707Z,27.95
2019-03-21T04:41:55.786Z,11.93
2019-03-21T04:47:04.915Z,9.86
2019-03-21T04:52:13.960Z,7.92
2019-03-21T04:57:23.091Z,10.17
2019-03-21T05:02:32.130Z,9.46
2019-03-21T05:07:41.230Z,11.01
2019-03-21T05:12:50.286Z,9.01
2019-03-21T05:17:59.402Z,8.05
2019-03-21T05:23:08.454Z,9.71
2019-03-21T05:28:17.650Z,9.93
2019-03-21T05:33:26.722Z,9.19
2019-03-21T05:38:35.827Z,8.08
2019-03-21T05:43:44.862Z,7.59
2019-03-21T05:48:54.012Z,7.46
2019-03-21T05:54:03.107Z,8.10
2019-03-21T05:59:13.232Z,7.18
2019-03-21T06:04:12.223Z,8.49
2019-03-21T06:09:21.337Z,9.47
2019-03-21T06:14:30.394Z,7.22
2019-03-21T06:19:39.501Z,9.08
2019-03-21T06:24:48.598Z,10.14
2019-03-21T06:29:57.737Z,9.59
2019-03-21T06:35:06.790Z,10.70
2019-03-21T06:40:16.518Z,14.19
2019-03-21T06:45:25.543Z,8.53
2019-03-21T06:50:34.728Z,11.86
2019-03-21T06:55:43.957Z,11.21
2019-03-21T07:00:53.127Z,13.44
2019-03-21T07:06:02.171Z,10.96
2019-03-21T07:11:11.400Z,10.87
2019-03-21T07:16:20.495Z,10.36
2019-03-21T07:21:29.601Z,11.12
2019-03-21T07:26:38.674Z,12.81
2019-03-21T07:31:47.813Z,9.95
2019-03-21T07:36:56.822Z,16.41
2019-03-21T07:42:05.943Z,13.89
2019-03-21T07:47:14.986Z,12.37
2019-03-21T07:52:24.181Z,13.09
2019-03-21T07:57:33.234Z,13.77
2019-03-21T08:02:42.570Z,14.03
2019-03-21T08:07:51.653Z,15.84
2019-03-21T08:13:00.767Z,15.29
2019-03-21T08:18:09.838Z,14.79
2019-03-21T08:23:18.991Z,14.13
2019-03-21T08:28:28.070Z,14.86
2019-03-21T08:33:37.192Z,13.04
2019-03-21T08:38:46.225Z,17.91
2019-03-21T08:43:55.348Z,11.60
2019-03-21T08:49:04.390Z,13.93
2019-03-21T08:54:13.857Z,16.94
2019-03-21T08:59:22.926Z,16.81
2019-03-21T09:04:32.078Z,13.72
2019-03-21T09:09:41.096Z,16.73
2019-03-21T09:14:50.221Z,16.81
2019-03-21T09:19:59.302Z,18.67
2019-03-21T09:25:08.511Z,14.25
2019-03-21T09:30:17.605Z,10.28
2019-03-21T09:35:26.739Z,20.44
2019-03-21T09:45:41.639Z,14.66
2019-03-21T09:50:50.674Z,16.49
2019-03-21T09:56:01.189Z,11.85
2019-03-21T10:01:08.383Z,13.40
2019-03-21T10:06:17.574Z,14.89
2019-03-21T10:11:26.646Z,11.24
2019-03-21T10:16:35.798Z,9.82
2019-03-21T10:21:44.889Z,9.21
2019-03-21T10:26:54.002Z,6.69
2019-03-21T10:32:13.653Z,8.64
2019-03-21T10:37:12.155Z,7.99
2019-03-21T10:42:21.297Z,9.87
2019-03-21T10:47:30.430Z,7.58
2019-03-21T10:52:39.462Z,9.69
2019-03-21T10:57:48.593Z,7.60
2019-03-21T11:02:57.730Z,6.89
2019-03-21T11:08:06.803Z,9.89
2019-03-21T11:13:15.865Z,5.44
2019-03-21T11:18:35.479Z,6.83
2019-03-21T11:23:33.563Z,7.99
2019-03-21T11:28:42.699Z,5.64
2019-03-21T11:33:51.755Z,5.89
2019-03-21T11:39:00.894Z,3.63
2019-03-21T11:44:09.976Z,2.69
2019-03-21T11:49:19.088Z,2.93
2019-03-21T11:54:28.129Z,2.88
2019-03-21T11:59:50.800Z,1.94
2019-03-21T12:04:46.086Z,2.11
2019-03-21T12:09:55.694Z,2.40
2019-03-21T12:15:04.829Z,1.93
2019-03-21T12:20:13.895Z,2.21
2019-03-21T12:25:22.942Z,2.39
2019-03-21T12:30:32.056Z,1.62
2019-03-21T12:35:41.257Z,2.03
2019-03-21T12:40:50.426Z,1.10
2019-03-21T12:45:59.481Z,3.94
2019-03-21T12:51:08.642Z,2.58
2019-03-21T12:56:17.650Z,3.03
2019-03-21T13:01:26.806Z,1.47
2019-03-21T13:06:35.892Z,0.93
2019-03-21T13:11:45.020Z,2.03
2019-03-21T13:16:54.078Z,1.26
2019-03-21T13:22:03.326Z,1.18
2019-03-21T13:27:12.430Z,0.71
2019-03-21T13:32:21.654Z,2.99
2019-03-21T13:37:32.371Z,2.91
2019-03-21T13:42:42.390Z,2.34
2019-03-21T13:47:41.442Z,3.67
2019-03-21T13:52:50.668Z,4.23
2019-03-21T13:57:59.762Z,2.00
2019-03-21T14:03:08.894Z,2.64
2019-03-21T14:08:17.974Z,2.67
2019-03-21T14:13:27.126Z,2.29
2019-03-21T14:18:36.177Z,1.76
2019-03-21T14:23:45.254Z,2.98
2019-03-21T14:28:54.270Z,1.51
2019-03-21T14:34:03.334Z,1.85
2019-03-21T14:39:12.438Z,1.57
2019-03-21T14:44:21.557Z,1.76
2019-03-21T14:49:30.605Z,2.35
2019-03-21T14:54:40.026Z,3.47
2019-03-21T14:59:49.033Z,2.39
2019-03-21T15:04:58.103Z,1.25
2019-03-21T15:10:07.152Z,1.27
2019-03-21T15:15:16.217Z,1.07
2019-03-21T15:20:25.302Z,1.64
2019-03-21T15:25:34.363Z,0.68
2019-03-21T15:30:43.491Z,1.03
2019-03-21T15:35:52.619Z,0.45
2019-03-21T15:41:01.810Z,0.98
2019-03-21T15:46:10.903Z,0.96
2019-03-21T15:51:20.412Z,2.25
2019-03-21T15:56:29.455Z,0.76
2019-03-21T16:01:38.605Z,1.61
2019-03-21T16:06:47.818Z,1.30
2019-03-21T16:12:00.365Z,1.35
2019-03-21T16:16:59.357Z,1.75
2019-03-21T16:22:08.755Z,1.81
2019-03-21T16:27:18.315Z,2.34
2019-03-21T16:32:27.530Z,2.27
2019-03-21T16:37:36.585Z,2.95
2019-03-21T16:42:45.804Z,2.31
2019-03-21T16:47:54.861Z,4.63
2019-03-21T16:53:04.026Z,3.58
2019-03-21T16:58:13.081Z,3.03
2019-03-21T17:03:22.214Z,4.06
2019-03-21T17:08:31.388Z,11.75
2019-03-21T17:13:40.546Z,7.16
2019-03-21T17:18:49.666Z,4.54
2019-03-21T17:23:58.799Z,5.01
2019-03-21T17:29:07.854Z,7.45
2019-03-21T17:34:16.915Z,4.28
2019-03-21T17:39:26.092Z,4.28
2019-03-21T17:44:35.278Z,7.87
2019-03-21T17:49:44.313Z,4.20
2019-03-21T17:54:53.485Z,6.23
2019-03-21T18:00:02.592Z,3.95
2019-03-21T18:05:11.741Z,9.07
2019-03-21T18:10:20.834Z,4.96
2019-03-21T18:15:29.979Z,4.01
2019-03-21T18:20:39.046Z,4.91
2019-03-21T18:25:48.191Z,4.02
2019-03-21T18:30:57.304Z,6.18
2019-03-21T18:36:06.436Z,6.86
2019-03-21T18:41:15.508Z,3.93
2019-03-21T18:46:24.862Z,3.97
2019-03-21T18:51:33.897Z,4.75
2019-03-21T18:56:43.324Z,4.27
2019-03-21T19:01:58.568Z,3.30
2019-03-21T19:07:01.052Z,2.50
2019-03-21T19:12:10.062Z,3.61
2019-03-21T19:17:19.210Z,3.11
2019-03-21T19:22:28.290Z,2.36
2019-03-21T19:27:37.409Z,1.44
2019-03-21T19:32:46.483Z,1.21
2019-03-21T19:37:55.654Z,1.61
2019-03-21T19:43:04.698Z,1.92
2019-03-21T19:48:13.840Z,1.47
2019-03-21T19:53:22.914Z,1.72
2019-03-21T19:58:32.038Z,1.95
2019-03-21T20:03:41.111Z,0.96
2019-03-21T20:08:50.414Z,1.51
2019-03-21T20:13:59.638Z,3.11
2019-03-21T20:19:07.374Z,3.36
2019-03-21T20:24:16.427Z,3.27
2019-03-21T20:29:25.582Z,1.83
2019-03-21T20:34:34.662Z,3.46
2019-03-21T20:39:43.782Z,2.19
2019-03-21T20:44:52.859Z,2.54
2019-03-21T20:50:02.001Z,1.71
2019-03-21T20:55:11.110Z,1.68
2019-03-21T21:00:20.256Z,3.00
2019-03-21T21:05:29.322Z,2.72
2019-03-21T21:10:38.418Z,1.32
2019-03-21T21:15:47.486Z,1.77
2019-03-21T21:20:56.562Z,1.33
2019-03-21T21:26:05.976Z,1.67
2019-03-21T21:31:23.510Z,1.28
2019-03-21T21:36:22.886Z,3.66
2019-03-21T21:41:31.949Z,1.20
2019-03-21T21:46:41.203Z,0.72
2019-03-21T21:51:50.239Z,1.03
2019-03-21T21:56:59.399Z,0.96
2019-03-21T22:02:06.974Z,0.64
2019-03-21T22:07:16.083Z,1.48
2019-03-21T22:12:25.134Z,0.69
2019-03-21T22:17:34.286Z,1.57
2019-03-21T22:22:43.308Z,1.09
2019-03-21T22:27:52.438Z,0.65
2019-03-21T22:33:01.511Z,0.71
2019-03-21T22:38:10.655Z,1.12
2019-03-21T22:43:19.752Z,1.19
2019-03-21T22:48:29.162Z,0.69
2019-03-21T22:53:38.226Z,0.68
2019-03-21T22:58:47.350Z,1.88
2019-03-21T23:03:56.402Z,1.07
2019-03-21T23:09:05.898Z,1.57
2019-03-21T23:14:15.003Z,1.40
2019-03-21T23:19:24.578Z,1.38
2019-03-21T23:24:33.629Z,1.24
2019-03-21T23:29:42.767Z,1.11
2019-03-21T23:34:51.818Z,1.41
2019-03-21T23:40:00.981Z,3.05
2019-03-21T23:45:10.039Z,2.25
2019-03-21T23:50:19.294Z,1.56
2019-03-21T23:55:28.339Z,1.27
